To NAV CANADA Home Page Login to a new session Search on AWWS site Feedback and Comments Disclaimer Vers la page française équivalente Tips FAQ What's new on the site To the Forecasts and Observations / NOTAM section To "File a Flight Plan" website Publications and other links Update of the User's profile FIC Telephone Numbers My Weather Data Folder Route Weather Data Regional Weather Data Local Weather Data To the Forecasts and Observations / NOTAM section
Request Generated 02/27/2017 at 09:24:39 UTC . Weather information available at that time is displayed.

METAR/TAF

VANCOUVER INTL/BC    (show WxCam)

METAR CYVR 270900Z 10003KT 20SM FEW150 01/M07 A2976 RMK AC2 SLP079=
METAR CYVR 270800Z 16004KT 20SM FEW160 01/M06 A2976 RMK AC2 SLP079=
METAR CYVR 270700Z VRB02KT 20SM FEW090 02/M07 A2976 RMK AC1 SLP080=

TAF CYVR 270838Z 2709/2812 VRB03KT P6SM FEW160
BECMG 2710/2712 08005KT
FM271400 09008KT P6SM SCT020 BKN050 OVC080 TEMPO 2714/2719 5SM
-SHSNRA BR BKN020 OVC050
FM271900 09008KT P6SM SCT020 SCT050 OVC080 TEMPO 2719/2722 P6SM
-SHRA BKN020 BKN050 OVC080
FM272200 09008KT P6SM FEW020 SCT050 BKN080
FM280000 29008KT P6SM FEW050 SCT100
FM280700 08008KT P6SM SCT020
RMK NXT FCST BY 271200Z=
Your time UTC time
Weather data provided by Environment Canada and NAV CANADA